CST,Max TemperatureF,Mean TemperatureF,Min TemperatureF,Max Dew PointF,MeanDew PointF,Min DewpointF,Max Humidity, Mean Humidity, Min Humidity, Max Sea Level PressureIn, Mean Sea Level PressureIn, Min Sea Level PressureIn, Max VisibilityMiles, Mean VisibilityMiles, Min VisibilityMiles, Max Wind SpeedMPH, Mean Wind SpeedMPH, Max Gust SpeedMPH,PrecipitationIn, CloudCover, Events, WindDirDegrees
2013-11-1,42,37,32,37,35,30,100,89,76,29.90,29.65,29.46,10,8,3,16,9,18,0.00,4,,284
2013-11-2,50,40,30,37,34,30,100,86,58,30.06,30.01,29.90,10,8,0,9,6,,0.00,2,Fog,271
2013-11-3,53,43,33,36,33,30,93,69,41,30.03,29.87,29.75,10,10,10,33,14,46,0.00,1,,132
2013-11-4,46,37,28,37,33,27,93,79,57,30.11,29.87,29.72,10,10,5,22,14,29,0.02,2,Rain,220
2013-11-5,35,30,26,28,23,19,93,72,56,30.25,30.15,30.07,10,10,10,12,6,,0.00,2,,295
2013-11-6,41,31,21,28,23,19,100,73,45,30.14,30.09,30.07,10,10,10,13,7,16,0.00,3,,276
2013-11-7,41,32,23,28,25,21,100,84,45,30.23,30.17,30.14,10,9,0,14,7,17,0.00,3,Fog,267
2013-11-8,42,32,23,37,28,21,100,81,53,30.14,29.81,29.57,10,10,5,24,10,32,0.02,3,Rain-Snow,146
2013-11-9,39,36,33,37,30,25,93,79,60,30.24,29.94,29.63,10,10,5,32,20,40,0.00,8,Rain,285
2013-11-10,35,29,23,28,27,21,100,82,70,30.30,30.21,30.10,10,10,10,16,10,26,0.00,5,,243
2013-11-11,26,18,10,21,8,7,85,70,54,30.73,30.50,30.20,10,10,10,21,15,28,0.00,2,Snow,332
2013-11-12,30,18,5,16,7,1,92,66,29,30.74,30.60,30.32,10,10,10,16,8,20,0.00,0,,221
2013-11-13,55,37,19,34,25,14,86,68,41,30.31,29.98,29.84,10,10,7,21,10,24,0.00,0,,211
2013-11-14,48,39,30,36,32,28,100,80,58,29.84,29.80,29.76,10,10,5,18,7,24,0.00,1,,251
2013-11-15,53,38,24,37,33,25,100,79,47,29.79,29.69,29.51,10,8,0,22,8,30,0.00,1,Fog,176
2013-11-16,44,40,35,45,39,34,100,95,76,29.51,29.34,29.23,10,3,0,21,12,26,0.02,5,Fog-Thunderstorm,144
2013-11-17,42,34,26,43,32,21,100,92,80,29.87,29.53,29.29,10,7,0,32,17,45,0.00,8,Fog,292
2013-11-18,30,24,17,21,20,16,93,78,64,30.20,30.09,29.88,10,10,10,30,17,37,0.00,4,,307
2013-11-19,46,32,19,34,26,18,93,73,53,30.18,29.92,29.73,10,10,10,29,15,39,0.00,0,,134
2013-11-20,48,37,26,34,30,27,100,70,50,30.03,29.84,29.72,10,10,5,26,16,34,0.00,1,,162
2013-11-21,28,21,14,27,15,9,100,80,64,30.55,30.34,30.04,10,9,2,24,17,31,0.00,5,Snow,322
2013-11-22,26,16,5,16,6,1,92,74,46,30.67,30.54,30.45,10,10,4,22,11,29,0.00,1,Snow,280
2013-11-23,12,6,0,3,0,-4,92,80,62,30.84,30.74,30.62,10,10,10,18,10,24,0.00,0,,301
2013-11-24,37,20,3,28,11,0,85,63,33,30.63,30.17,29.84,10,10,10,26,13,33,0.00,0,,183
2013-11-25,37,30,24,28,24,18,93,76,56,30.11,29.97,29.83,10,10,10,24,16,33,0.00,6,,285
2013-11-26,24,16,6,16,8,3,92,71,49,30.38,30.27,30.12,10,10,5,24,18,37,0.00,3,Snow,320
2013-11-27,23,13,3,10,7,1,92,76,54,30.37,30.16,29.99,10,10,10,23,6,26,0.00,3,,131
2013-11-28,23,16,8,16,9,7,92,70,54,30.45,30.29,30.04,10,10,10,17,7,23,0.00,4,Snow,323
2013-11-29,32,20,8,19,14,7,92,74,55,30.44,30.25,30.03,10,10,10,22,9,29,0.00,1,,144
2013-11-30,32,24,15,23,20,16,100,86,64,30.18,30.07,29.99,10,9,5,13,7,16,0.00,1,,300